Weather Data

Pearl Creek Farm: 8878 N Farm Road 75, Walnut Grove MO 65770

<== Previous Day (Thursday 14 Jun 2018) | Next Day (Saturday 16 Jun 2018) ==>

Summary Precipitation Data For Friday 15 June 2018

ElementValueUnits
Precipitation0"
Notes(none)
SourcePearl Creek Farm

Summary Temperature Data For Friday 15 June 2018

ElementValueUnits
High Temperature93 oF
Low Temperature73 oF
Average Temperature84 oF
High Humidity79 %
Low Humidity46 %
Average Humidity62 %
SourceSpringfield-Branson National Airport (SGF)

Detail Temperature Data For Friday 15 June 2018

Date / TimeTemp (F)RH (%)Dew Pt (F)Report Date / TimeSource
2018-06-15 00:52:00 75 74 66.0 2019-02-02 11:24:24.260017 Springfield-Branson National Airport (SGF)
2018-06-15 01:52:00 74 76 66.0 2019-02-02 11:24:24.260017 Springfield-Branson National Airport (SGF)
2018-06-15 02:52:00 73 79 66.0 2019-02-02 11:24:24.260017 Springfield-Branson National Airport (SGF)
2018-06-15 03:52:00 73 79 66.0 2019-02-02 11:24:24.260017 Springfield-Branson National Airport (SGF)
2018-06-15 04:52:00 73 79 66.0 2019-02-02 11:24:24.260017 Springfield-Branson National Airport (SGF)
2018-06-15 05:52:00 74 79 67.0 2019-02-02 11:24:24.260017 Springfield-Branson National Airport (SGF)
2018-06-15 06:52:00 77 74 68.0 2019-02-02 11:24:24.260017 Springfield-Branson National Airport (SGF)
2018-06-15 07:52:00 81 67 69.0 2019-02-02 11:24:24.260017 Springfield-Branson National Airport (SGF)
2018-06-15 08:52:00 85 61 70.0 2019-02-02 11:24:24.260017 Springfield-Branson National Airport (SGF)
2018-06-15 09:52:00 88 55 70.0 2019-02-02 11:24:24.260017 Springfield-Branson National Airport (SGF)
2018-06-15 10:52:00 90 52 70.0 2019-02-02 11:24:24.260017 Springfield-Branson National Airport (SGF)
2018-06-15 11:52:00 90 52 70.0 2019-02-02 11:24:24.260017 Springfield-Branson National Airport (SGF)
2018-06-15 12:52:00 92 49 70.0 2019-02-02 11:24:24.260017 Springfield-Branson National Airport (SGF)
2018-06-15 13:52:00 93 46 69.0 2019-02-02 11:24:24.260017 Springfield-Branson National Airport (SGF)
2018-06-15 14:52:00 93 46 69.0 2019-02-02 11:24:24.260017 Springfield-Branson National Airport (SGF)
2018-06-15 15:52:00 93 46 69.0 2019-02-02 11:24:24.260017 Springfield-Branson National Airport (SGF)
2018-06-15 16:52:00 93 47 70.0 2019-02-02 11:24:24.260017 Springfield-Branson National Airport (SGF)
2018-06-15 17:52:00 91 47 68.0 2019-02-02 11:24:24.260017 Springfield-Branson National Airport (SGF)
2018-06-15 18:52:00 88 50 67.0 2019-02-02 11:24:24.260017 Springfield-Branson National Airport (SGF)
2018-06-15 19:52:00 83 61 68.0 2019-02-02 11:24:24.260017 Springfield-Branson National Airport (SGF)
2018-06-15 20:52:00 81 65 68.0 2019-02-02 11:24:24.260017 Springfield-Branson National Airport (SGF)
2018-06-15 21:52:00 82 63 68.0 2019-02-02 11:24:24.260017 Springfield-Branson National Airport (SGF)
2018-06-15 22:52:00 82 63 68.0 2019-02-02 11:24:24.260017 Springfield-Branson National Airport (SGF)
2018-06-15 23:52:00 80 67 68.0 2019-02-02 11:24:24.260017 Springfield-Branson National Airport (SGF)

A total of 24 rows are displayed.